sensor_id;sensor_type;location;lat;lon;timestamp;temperature;humidity
54158;DHT22;40065;49.894;10.358;2023-07-13T00:04:39;24.30;70.70
54158;DHT22;40065;49.894;10.358;2023-07-13T00:09:41;24.10;70.70
54158;DHT22;40065;49.894;10.358;2023-07-13T00:14:43;24.00;70.70
54158;DHT22;40065;49.894;10.358;2023-07-13T00:19:44;23.80;71.10
54158;DHT22;40065;49.894;10.358;2023-07-13T00:24:47;23.70;71.20
54158;DHT22;40065;49.894;10.358;2023-07-13T00:29:49;23.60;71.50
54158;DHT22;40065;49.894;10.358;2023-07-13T00:34:52;23.40;71.70
54158;DHT22;40065;49.894;10.358;2023-07-13T00:39:54;23.30;72.30
54158;DHT22;40065;49.894;10.358;2023-07-13T00:50:16;23.40;72.70
54158;DHT22;40065;49.894;10.358;2023-07-13T00:55:21;23.50;72.50
54158;DHT22;40065;49.894;10.358;2023-07-13T01:00:25;23.60;72.50
54158;DHT22;40065;49.894;10.358;2023-07-13T01:05:28;23.60;72.30
54158;DHT22;40065;49.894;10.358;2023-07-13T01:10:30;23.60;72.70
54158;DHT22;40065;49.894;10.358;2023-07-13T01:15:44;23.60;72.10
54158;DHT22;40065;49.894;10.358;2023-07-13T01:20:55;23.60;71.70
54158;DHT22;40065;49.894;10.358;2023-07-13T01:25:58;23.50;72.00
54158;DHT22;40065;49.894;10.358;2023-07-13T01:31:00;23.50;71.70
54158;DHT22;40065;49.894;10.358;2023-07-13T01:36:03;23.50;72.10
54158;DHT22;40065;49.894;10.358;2023-07-13T01:41:05;23.50;71.70
54158;DHT22;40065;49.894;10.358;2023-07-13T01:46:07;23.50;71.40
54158;DHT22;40065;49.894;10.358;2023-07-13T01:51:24;23.40;72.10
54158;DHT22;40065;49.894;10.358;2023-07-13T01:56:26;23.40;71.80
54158;DHT22;40065;49.894;10.358;2023-07-13T02:01:28;23.40;72.20
54158;DHT22;40065;49.894;10.358;2023-07-13T02:06:30;23.40;71.80
54158;DHT22;40065;49.894;10.358;2023-07-13T02:11:32;23.30;71.80
54158;DHT22;40065;49.894;10.358;2023-07-13T02:16:34;23.30;72.00
54158;DHT22;40065;49.894;10.358;2023-07-13T02:21:36;23.20;71.50
54158;DHT22;40065;49.894;10.358;2023-07-13T02:26:38;23.10;71.50
54158;DHT22;40065;49.894;10.358;2023-07-13T02:31:40;23.10;71.50
54158;DHT22;40065;49.894;10.358;2023-07-13T02:36:42;23.00;71.90
54158;DHT22;40065;49.894;10.358;2023-07-13T02:41:44;22.80;72.40
54158;DHT22;40065;49.894;10.358;2023-07-13T02:46:48;22.60;72.70
54158;DHT22;40065;49.894;10.358;2023-07-13T02:51:51;22.30;73.20
54158;DHT22;40065;49.894;10.358;2023-07-13T02:56:53;22.20;73.30
54158;DHT22;40065;49.894;10.358;2023-07-13T03:01:55;22.20;73.10
54158;DHT22;40065;49.894;10.358;2023-07-13T03:06:57;22.10;73.20
54158;DHT22;40065;49.894;10.358;2023-07-13T03:12:06;21.90;73.70
54158;DHT22;40065;49.894;10.358;2023-07-13T03:17:08;21.70;74.70
54158;DHT22;40065;49.894;10.358;2023-07-13T03:22:13;21.70;74.60
54158;DHT22;40065;49.894;10.358;2023-07-13T03:27:17;21.70;74.70
54158;DHT22;40065;49.894;10.358;2023-07-13T03:32:22;21.70;74.70
54158;DHT22;40065;49.894;10.358;2023-07-13T03:37:24;21.40;74.90
54158;DHT22;40065;49.894;10.358;2023-07-13T03:42:26;21.40;75.70
54158;DHT22;40065;49.894;10.358;2023-07-13T03:47:28;21.40;75.20
54158;DHT22;40065;49.894;10.358;2023-07-13T03:52:31;21.40;75.40
54158;DHT22;40065;49.894;10.358;2023-07-13T03:57:33;21.20;77.50
54158;DHT22;40065;49.894;10.358;2023-07-13T04:02:39;21.20;76.40
54158;DHT22;40065;49.894;10.358;2023-07-13T04:07:42;21.50;75.80
54158;DHT22;40065;49.894;10.358;2023-07-13T04:12:44;21.90;75.50
54158;DHT22;40065;49.894;10.358;2023-07-13T04:17:46;23.30;72.10
54158;DHT22;40065;49.894;10.358;2023-07-13T04:22:48;24.70;68.40
54158;DHT22;40065;49.894;10.358;2023-07-13T04:27:50;25.90;66.80
54158;DHT22;40065;49.894;10.358;2023-07-13T04:32:52;27.30;63.90
54158;DHT22;40065;49.894;10.358;2023-07-13T04:37:54;28.30;61.40
54158;DHT22;40065;49.894;10.358;2023-07-13T04:42:56;28.70;59.80
54158;DHT22;40065;49.894;10.358;2023-07-13T04:47:58;29.60;58.70
54158;DHT22;40065;49.894;10.358;2023-07-13T04:53:00;29.90;58.10
54158;DHT22;40065;49.894;10.358;2023-07-13T04:58:02;28.00;59.90
54158;DHT22;40065;49.894;10.358;2023-07-13T05:03:04;28.30;59.30
54158;DHT22;40065;49.894;10.358;2023-07-13T05:08:07;27.10;60.40
54158;DHT22;40065;49.894;10.358;2023-07-13T05:13:09;26.30;62.30
54158;DHT22;40065;49.894;10.358;2023-07-13T05:18:11;26.00;61.70
54158;DHT22;40065;49.894;10.358;2023-07-13T05:23:12;25.90;62.90
54158;DHT22;40065;49.894;10.358;2023-07-13T05:28:14;25.10;63.40
54158;DHT22;40065;49.894;10.358;2023-07-13T05:33:17;24.20;64.90
54158;DHT22;40065;49.894;10.358;2023-07-13T05:38:19;24.40;64.30
54158;DHT22;40065;49.894;10.358;2023-07-13T05:43:22;24.30;64.20
54158;DHT22;40065;49.894;10.358;2023-07-13T05:48:24;23.80;64.80
54158;DHT22;40065;49.894;10.358;2023-07-13T05:53:26;23.90;64.90
54158;DHT22;40065;49.894;10.358;2023-07-13T05:58:28;25.10;62.50
54158;DHT22;40065;49.894;10.358;2023-07-13T06:03:30;27.40;58.70
54158;DHT22;40065;49.894;10.358;2023-07-13T06:08:32;28.20;57.40
54158;DHT22;40065;49.894;10.358;2023-07-13T06:13:34;28.30;57.40
54158;DHT22;40065;49.894;10.358;2023-07-13T06:18:37;29.80;55.20
54158;DHT22;40065;49.894;10.358;2023-07-13T06:23:39;29.70;54.10
54158;DHT22;40065;49.894;10.358;2023-07-13T06:28:41;29.50;55.40
54158;DHT22;40065;49.894;10.358;2023-07-13T06:33:43;29.40;54.90
54158;DHT22;40065;49.894;10.358;2023-07-13T06:38:45;29.60;53.40
54158;DHT22;40065;49.894;10.358;2023-07-13T06:43:47;29.50;54.70
54158;DHT22;40065;49.894;10.358;2023-07-13T06:48:49;28.80;54.20
54158;DHT22;40065;49.894;10.358;2023-07-13T06:53:52;29.10;54.40
54158;DHT22;40065;49.894;10.358;2023-07-13T06:58:54;30.20;53.20
54158;DHT22;40065;49.894;10.358;2023-07-13T07:03:56;29.40;53.80
54158;DHT22;40065;49.894;10.358;2023-07-13T07:08:58;29.70;52.50
54158;DHT22;40065;49.894;10.358;2023-07-13T07:14:00;28.80;53.10
54158;DHT22;40065;49.894;10.358;2023-07-13T07:19:01;28.40;55.20
54158;DHT22;40065;49.894;10.358;2023-07-13T07:24:06;29.60;54.00
54158;DHT22;40065;49.894;10.358;2023-07-13T07:29:09;29.30;54.30
54158;DHT22;40065;49.894;10.358;2023-07-13T07:34:14;29.70;54.70
54158;DHT22;40065;49.894;10.358;2023-07-13T07:39:16;31.00;52.20
54158;DHT22;40065;49.894;10.358;2023-07-13T07:44:18;31.40;52.20
54158;DHT22;40065;49.894;10.358;2023-07-13T07:49:20;32.20;49.20
54158;DHT22;40065;49.894;10.358;2023-07-13T07:54:22;32.70;49.60
54158;DHT22;40065;49.894;10.358;2023-07-13T07:59:44;33.20;48.20
54158;DHT22;40065;49.894;10.358;2023-07-13T08:04:49;33.10;46.40
54158;DHT22;40065;49.894;10.358;2023-07-13T08:09:54;32.80;46.00
54158;DHT22;40065;49.894;10.358;2023-07-13T08:14:56;32.70;46.90
54158;DHT22;40065;49.894;10.358;2023-07-13T08:19:59;32.10;48.00
54158;DHT22;40065;49.894;10.358;2023-07-13T08:25:01;32.30;47.40
54158;DHT22;40065;49.894;10.358;2023-07-13T08:30:04;32.70;46.80
54158;DHT22;40065;49.894;10.358;2023-07-13T08:35:07;32.50;46.20
54158;DHT22;40065;49.894;10.358;2023-07-13T08:40:10;32.90;47.20
54158;DHT22;40065;49.894;10.358;2023-07-13T08:45:23;32.70;45.90
54158;DHT22;40065;49.894;10.358;2023-07-13T08:50:31;33.00;47.10
54158;DHT22;40065;49.894;10.358;2023-07-13T08:55:57;33.60;46.20
54158;DHT22;40065;49.894;10.358;2023-07-13T09:06:16;33.40;45.60
54158;DHT22;40065;49.894;10.358;2023-07-13T09:16:40;32.70;45.10
54158;DHT22;40065;49.894;10.358;2023-07-13T09:21:44;32.50;45.50
54158;DHT22;40065;49.894;10.358;2023-07-13T09:26:47;32.10;45.50
54158;DHT22;40065;49.894;10.358;2023-07-13T09:31:50;32.20;46.10
54158;DHT22;40065;49.894;10.358;2023-07-13T09:36:54;32.50;45.80
54158;DHT22;40065;49.894;10.358;2023-07-13T09:47:20;32.30;45.60
54158;DHT22;40065;49.894;10.358;2023-07-13T09:52:26;32.70;45.40
54158;DHT22;40065;49.894;10.358;2023-07-13T09:57:32;32.70;46.10
54158;DHT22;40065;49.894;10.358;2023-07-13T10:03:00;33.40;45.00
54158;DHT22;40065;49.894;10.358;2023-07-13T10:08:02;33.80;43.40
54158;DHT22;40065;49.894;10.358;2023-07-13T10:13:21;33.30;44.30
54158;DHT22;40065;49.894;10.358;2023-07-13T10:18:27;33.90;43.80
54158;DHT22;40065;49.894;10.358;2023-07-13T10:23:32;34.20;43.50
54158;DHT22;40065;49.894;10.358;2023-07-13T10:28:37;34.00;43.40
54158;DHT22;40065;49.894;10.358;2023-07-13T10:33:43;33.80;43.90
54158;DHT22;40065;49.894;10.358;2023-07-13T10:38:46;34.30;43.90
54158;DHT22;40065;49.894;10.358;2023-07-13T10:43:53;33.60;44.70
54158;DHT22;40065;49.894;10.358;2023-07-13T10:49:02;32.70;44.90
54158;DHT22;40065;49.894;10.358;2023-07-13T10:59:26;32.50;45.10
54158;DHT22;40065;49.894;10.358;2023-07-13T11:04:40;32.70;45.10
54158;DHT22;40065;49.894;10.358;2023-07-13T11:09:43;32.70;44.30
54158;DHT22;40065;49.894;10.358;2023-07-13T11:35:34;31.50;45.90
54158;DHT22;40065;49.894;10.358;2023-07-13T11:40:37;31.50;46.40
54158;DHT22;40065;49.894;10.358;2023-07-13T11:45:39;31.60;46.40
54158;DHT22;40065;49.894;10.358;2023-07-13T11:51:00;32.10;46.30
54158;DHT22;40065;49.894;10.358;2023-07-13T11:56:08;33.30;44.70
54158;DHT22;40065;49.894;10.358;2023-07-13T12:01:24;33.50;44.20
54158;DHT22;40065;49.894;10.358;2023-07-13T12:06:33;32.80;43.80
54158;DHT22;40065;49.894;10.358;2023-07-13T12:11:41;32.40;45.40
54158;DHT22;40065;49.894;10.358;2023-07-13T12:16:44;33.30;44.20
54158;DHT22;40065;49.894;10.358;2023-07-13T12:21:54;32.10;45.20
54158;DHT22;40065;49.894;10.358;2023-07-13T12:27:13;31.40;46.20
54158;DHT22;40065;49.894;10.358;2023-07-13T12:32:18;31.70;45.60
54158;DHT22;40065;49.894;10.358;2023-07-13T12:37:20;32.40;45.60
54158;DHT22;40065;49.894;10.358;2023-07-13T12:42:31;32.20;45.30
54158;DHT22;40065;49.894;10.358;2023-07-13T12:47:41;32.80;44.90
54158;DHT22;40065;49.894;10.358;2023-07-13T12:52:49;32.30;45.00
54158;DHT22;40065;49.894;10.358;2023-07-13T12:57:53;31.90;45.50
54158;DHT22;40065;49.894;10.358;2023-07-13T13:02:57;31.90;45.20
54158;DHT22;40065;49.894;10.358;2023-07-13T13:08:19;31.60;45.80
54158;DHT22;40065;49.894;10.358;2023-07-13T13:13:22;31.40;46.60
54158;DHT22;40065;49.894;10.358;2023-07-13T13:18:24;31.50;45.50
54158;DHT22;40065;49.894;10.358;2023-07-13T13:23:26;31.30;46.60
54158;DHT22;40065;49.894;10.358;2023-07-13T13:28:28;31.30;46.80
54158;DHT22;40065;49.894;10.358;2023-07-13T13:33:30;31.30;46.70
54158;DHT22;40065;49.894;10.358;2023-07-13T13:38:35;31.30;46.50
54158;DHT22;40065;49.894;10.358;2023-07-13T13:43:38;31.60;46.20
54158;DHT22;40065;49.894;10.358;2023-07-13T13:48:40;31.30;46.70
54158;DHT22;40065;49.894;10.358;2023-07-13T13:53:44;31.20;47.10
54158;DHT22;40065;49.894;10.358;2023-07-13T13:58:47;31.10;46.60
54158;DHT22;40065;49.894;10.358;2023-07-13T14:03:49;31.20;45.80
54158;DHT22;40065;49.894;10.358;2023-07-13T14:08:52;31.80;45.50
54158;DHT22;40065;49.894;10.358;2023-07-13T14:13:58;31.90;45.20
54158;DHT22;40065;49.894;10.358;2023-07-13T14:19:01;31.40;46.00
54158;DHT22;40065;49.894;10.358;2023-07-13T14:24:03;31.20;46.40
54158;DHT22;40065;49.894;10.358;2023-07-13T14:29:14;30.80;46.10
54158;DHT22;40065;49.894;10.358;2023-07-13T14:34:17;30.80;46.60
54158;DHT22;40065;49.894;10.358;2023-07-13T14:39:23;30.90;46.60
54158;DHT22;40065;49.894;10.358;2023-07-13T14:44:27;31.70;46.40
54158;DHT22;40065;49.894;10.358;2023-07-13T14:49:34;31.30;45.30
54158;DHT22;40065;49.894;10.358;2023-07-13T14:54:36;31.10;46.00
54158;DHT22;40065;49.894;10.358;2023-07-13T14:59:42;31.50;46.10
54158;DHT22;40065;49.894;10.358;2023-07-13T15:04:47;30.70;47.00
54158;DHT22;40065;49.894;10.358;2023-07-13T15:09:49;30.60;46.90
54158;DHT22;40065;49.894;10.358;2023-07-13T15:14:52;30.70;46.10
54158;DHT22;40065;49.894;10.358;2023-07-13T15:19:55;30.20;46.70
54158;DHT22;40065;49.894;10.358;2023-07-13T15:24:57;30.60;46.70
54158;DHT22;40065;49.894;10.358;2023-07-13T15:30:03;31.50;45.40
54158;DHT22;40065;49.894;10.358;2023-07-13T15:40:17;32.60;44.20
54158;DHT22;40065;49.894;10.358;2023-07-13T15:45:23;31.90;44.00
54158;DHT22;40065;49.894;10.358;2023-07-13T15:50:26;31.60;45.30
54158;DHT22;40065;49.894;10.358;2023-07-13T15:55:33;31.20;45.40
54158;DHT22;40065;49.894;10.358;2023-07-13T16:00:35;30.70;46.10
54158;DHT22;40065;49.894;10.358;2023-07-13T16:05:37;30.30;46.30
54158;DHT22;40065;49.894;10.358;2023-07-13T16:10:40;30.50;46.80
54158;DHT22;40065;49.894;10.358;2023-07-13T16:15:42;30.30;47.40
54158;DHT22;40065;49.894;10.358;2023-07-13T16:20:48;29.90;47.40
54158;DHT22;40065;49.894;10.358;2023-07-13T16:25:51;29.80;47.00
54158;DHT22;40065;49.894;10.358;2023-07-13T16:30:53;29.40;47.60
54158;DHT22;40065;49.894;10.358;2023-07-13T16:35:55;29.50;47.40
54158;DHT22;40065;49.894;10.358;2023-07-13T16:40:57;29.20;47.70
54158;DHT22;40065;49.894;10.358;2023-07-13T16:46:00;29.00;47.80
54158;DHT22;40065;49.894;10.358;2023-07-13T16:51:05;28.90;48.10
54158;DHT22;40065;49.894;10.358;2023-07-13T16:56:17;29.00;48.20
54158;DHT22;40065;49.894;10.358;2023-07-13T17:01:22;29.10;47.70
54158;DHT22;40065;49.894;10.358;2023-07-13T17:06:24;28.80;47.60
54158;DHT22;40065;49.894;10.358;2023-07-13T17:11:26;28.60;48.20
54158;DHT22;40065;49.894;10.358;2023-07-13T17:16:34;28.60;48.00
54158;DHT22;40065;49.894;10.358;2023-07-13T17:21:36;28.30;48.40
54158;DHT22;40065;49.894;10.358;2023-07-13T17:26:39;28.10;48.90
54158;DHT22;40065;49.894;10.358;2023-07-13T17:31:42;28.00;49.10
54158;DHT22;40065;49.894;10.358;2023-07-13T17:36:46;27.90;49.60
54158;DHT22;40065;49.894;10.358;2023-07-13T17:41:48;27.90;49.40
54158;DHT22;40065;49.894;10.358;2023-07-13T17:46:50;27.80;49.80
54158;DHT22;40065;49.894;10.358;2023-07-13T17:51:52;27.70;49.80
54158;DHT22;40065;49.894;10.358;2023-07-13T17:56:54;27.60;50.00
54158;DHT22;40065;49.894;10.358;2023-07-13T18:01:56;27.60;50.40
54158;DHT22;40065;49.894;10.358;2023-07-13T18:06:58;27.40;50.60
54158;DHT22;40065;49.894;10.358;2023-07-13T18:12:10;27.40;50.40
54158;DHT22;40065;49.894;10.358;2023-07-13T18:17:13;27.20;50.60
54158;DHT22;40065;49.894;10.358;2023-07-13T18:22:16;27.10;50.50
54158;DHT22;40065;49.894;10.358;2023-07-13T18:27:19;26.80;51.00
54158;DHT22;40065;49.894;10.358;2023-07-13T18:32:21;26.60;51.30
54158;DHT22;40065;49.894;10.358;2023-07-13T18:37:24;26.50;52.00
54158;DHT22;40065;49.894;10.358;2023-07-13T18:42:26;26.40;51.80
54158;DHT22;40065;49.894;10.358;2023-07-13T18:47:28;26.20;52.40
54158;DHT22;40065;49.894;10.358;2023-07-13T18:52:35;26.10;52.40
54158;DHT22;40065;49.894;10.358;2023-07-13T18:57:37;25.90;53.20
54158;DHT22;40065;49.894;10.358;2023-07-13T19:02:39;25.80;52.50
54158;DHT22;40065;49.894;10.358;2023-07-13T19:07:42;25.50;52.60
54158;DHT22;40065;49.894;10.358;2023-07-13T19:12:46;25.20;53.40
54158;DHT22;40065;49.894;10.358;2023-07-13T19:17:50;25.10;53.70
54158;DHT22;40065;49.894;10.358;2023-07-13T19:22:58;24.90;53.70
54158;DHT22;40065;49.894;10.358;2023-07-13T19:28:13;24.90;53.70
54158;DHT22;40065;49.894;10.358;2023-07-13T19:33:17;24.70;54.10
54158;DHT22;40065;49.894;10.358;2023-07-13T19:38:22;24.50;54.80
54158;DHT22;40065;49.894;10.358;2023-07-13T19:43:25;24.30;54.90
54158;DHT22;40065;49.894;10.358;2023-07-13T19:48:27;24.10;55.50
54158;DHT22;40065;49.894;10.358;2023-07-13T19:53:29;24.00;55.60
54158;DHT22;40065;49.894;10.358;2023-07-13T19:58:31;23.80;55.90
54158;DHT22;40065;49.894;10.358;2023-07-13T20:03:34;23.70;57.00
54158;DHT22;40065;49.894;10.358;2023-07-13T20:08:36;23.60;57.00
54158;DHT22;40065;49.894;10.358;2023-07-13T20:13:38;23.50;57.30
54158;DHT22;40065;49.894;10.358;2023-07-13T20:18:43;23.40;57.70
54158;DHT22;40065;49.894;10.358;2023-07-13T20:23:48;23.20;57.80
54158;DHT22;40065;49.894;10.358;2023-07-13T20:28:50;23.10;58.10
54158;DHT22;40065;49.894;10.358;2023-07-13T20:34:00;23.10;58.70
54158;DHT22;40065;49.894;10.358;2023-07-13T20:39:02;23.00;59.20
54158;DHT22;40065;49.894;10.358;2023-07-13T20:44:05;22.80;59.20
54158;DHT22;40065;49.894;10.358;2023-07-13T20:49:09;22.70;59.80
54158;DHT22;40065;49.894;10.358;2023-07-13T20:54:13;22.60;59.90
54158;DHT22;40065;49.894;10.358;2023-07-13T20:59:15;22.50;60.50
54158;DHT22;40065;49.894;10.358;2023-07-13T21:04:17;22.40;59.70
54158;DHT22;40065;49.894;10.358;2023-07-13T21:09:20;22.40;59.90
54158;DHT22;40065;49.894;10.358;2023-07-13T21:14:22;22.10;62.20
54158;DHT22;40065;49.894;10.358;2023-07-13T21:19:25;21.80;63.50
54158;DHT22;40065;49.894;10.358;2023-07-13T21:24:27;21.50;64.40
54158;DHT22;40065;49.894;10.358;2023-07-13T21:29:29;21.30;65.00
54158;DHT22;40065;49.894;10.358;2023-07-13T21:34:31;21.20;65.30
54158;DHT22;40065;49.894;10.358;2023-07-13T21:39:33;21.20;65.20
54158;DHT22;40065;49.894;10.358;2023-07-13T21:44:35;21.20;65.30
54158;DHT22;40065;49.894;10.358;2023-07-13T21:49:37;21.10;65.50
54158;DHT22;40065;49.894;10.358;2023-07-13T21:54:39;20.90;66.30
54158;DHT22;40065;49.894;10.358;2023-07-13T21:59:41;20.80;66.80
54158;DHT22;40065;49.894;10.358;2023-07-13T22:04:43;20.80;66.70
54158;DHT22;40065;49.894;10.358;2023-07-13T22:09:46;20.80;66.80
54158;DHT22;40065;49.894;10.358;2023-07-13T22:14:48;20.70;67.30
54158;DHT22;40065;49.894;10.358;2023-07-13T22:19:49;20.70;67.20
54158;DHT22;40065;49.894;10.358;2023-07-13T22:24:53;20.60;67.20
54158;DHT22;40065;49.894;10.358;2023-07-13T22:29:55;20.40;68.30
54158;DHT22;40065;49.894;10.358;2023-07-13T22:34:57;20.30;68.60
54158;DHT22;40065;49.894;10.358;2023-07-13T22:40:00;20.30;68.80
54158;DHT22;40065;49.894;10.358;2023-07-13T22:45:02;20.00;69.80
54158;DHT22;40065;49.894;10.358;2023-07-13T22:50:15;20.00;69.70
54158;DHT22;40065;49.894;10.358;2023-07-13T22:55:18;19.80;70.40
54158;DHT22;40065;49.894;10.358;2023-07-13T23:00:22;19.80;70.20
54158;DHT22;40065;49.894;10.358;2023-07-13T23:05:24;19.70;70.50
54158;DHT22;40065;49.894;10.358;2023-07-13T23:10:26;19.80;71.20
54158;DHT22;40065;49.894;10.358;2023-07-13T23:15:30;19.80;71.10
54158;DHT22;40065;49.894;10.358;2023-07-13T23:20:34;19.90;70.50
54158;DHT22;40065;49.894;10.358;2023-07-13T23:25:36;19.80;71.20
54158;DHT22;40065;49.894;10.358;2023-07-13T23:30:47;19.90;71.30
54158;DHT22;40065;49.894;10.358;2023-07-13T23:35:50;19.90;70.10
54158;DHT22;40065;49.894;10.358;2023-07-13T23:40:56;19.70;71.00
54158;DHT22;40065;49.894;10.358;2023-07-13T23:45:59;19.40;72.40
54158;DHT22;40065;49.894;10.358;2023-07-13T23:51:01;19.30;73.40
54158;DHT22;40065;49.894;10.358;2023-07-13T23:56:22;19.10;74.30
